createdAt,value
2022-07-29T00:01:19.388Z,42.90
2022-07-29T00:03:48.090Z,45.23
2022-07-29T00:06:16.525Z,45.90
2022-07-29T00:08:44.773Z,42.67
2022-07-29T00:11:14.374Z,49.40
2022-07-29T00:13:44.447Z,46.63
2022-07-29T00:16:16.052Z,46.40
2022-07-29T00:18:44.327Z,43.33
2022-07-29T00:21:12.567Z,45.83
2022-07-29T00:23:40.771Z,46.33
2022-07-29T00:26:09.095Z,42.87
2022-07-29T00:28:38.692Z,46.47
2022-07-29T00:31:06.906Z,48.03
2022-07-29T00:33:35.272Z,45.37
2022-07-29T00:36:02.490Z,49.63
2022-07-29T00:38:30.691Z,46.03
2022-07-29T00:40:58.909Z,57.93
2022-07-29T00:43:28.111Z,50.87
2022-07-29T00:45:57.714Z,46.17
2022-07-29T00:48:25.978Z,73.67
2022-07-29T00:50:55.407Z,46.03
2022-07-29T00:53:24.031Z,72.47
2022-07-29T00:55:52.448Z,72.57
2022-07-29T00:58:20.748Z,58.63
2022-07-29T01:00:49.137Z,53.10
2022-07-29T01:03:18.874Z,60.93
2022-07-29T01:05:51.271Z,72.83
2022-07-29T01:08:20.557Z,52.87
2022-07-29T01:10:48.883Z,50.10
2022-07-29T01:13:17.496Z,70.13
2022-07-29T01:15:48.875Z,68.87
2022-07-29T01:18:22.119Z,71.80
2022-07-29T01:21:01.685Z,70.40
2022-07-29T01:23:42.930Z,71.27
2022-07-29T01:26:28.642Z,53.00
2022-07-29T01:29:07.644Z,70.53
2022-07-29T01:31:41.777Z,70.43
2022-07-29T01:34:30.156Z,74.60
2022-07-29T01:37:04.943Z,73.20
2022-07-29T01:39:34.275Z,71.83
2022-07-29T01:42:08.871Z,72.73
2022-07-29T01:44:40.723Z,74.17
2022-07-29T01:47:13.749Z,74.97
2022-07-29T01:49:43.882Z,69.87
2022-07-29T01:52:15.971Z,73.40
2022-07-29T01:54:50.595Z,72.97
2022-07-29T01:57:19.663Z,73.17
2022-07-29T01:59:50.221Z,73.80
2022-07-29T02:02:19.303Z,74.77
2022-07-29T02:04:49.410Z,70.50
2022-07-29T02:07:19.684Z,74.10
2022-07-29T02:09:48.611Z,74.80
2022-07-29T02:12:17.478Z,73.73
2022-07-29T02:14:47.512Z,72.43
2022-07-29T02:17:18.467Z,76.07
2022-07-29T02:19:47.453Z,74.40
2022-07-29T02:22:16.289Z,73.97
2022-07-29T02:24:44.702Z,76.10
2022-07-29T02:27:13.738Z,74.13
2022-07-29T02:29:42.442Z,77.80
2022-07-29T02:32:12.986Z,77.50
2022-07-29T02:34:44.186Z,74.63
2022-07-29T02:37:12.761Z,76.70
2022-07-29T02:39:41.913Z,78.27
2022-07-29T02:42:10.856Z,75.43
2022-07-29T02:44:39.369Z,81.47
2022-07-29T02:47:13.314Z,77.40
2022-07-29T02:49:43.979Z,71.80
2022-07-29T02:52:15.272Z,75.87
2022-07-29T02:54:48.655Z,80.07
2022-07-29T02:57:21.361Z,81.77
2022-07-29T02:59:50.749Z,80.27
2022-07-29T03:02:19.484Z,76.53
2022-07-29T03:04:50.096Z,74.90
2022-07-29T03:07:20.863Z,80.90
2022-07-29T03:09:49.510Z,76.83
2022-07-29T03:12:18.032Z,81.80
2022-07-29T03:14:47.131Z,77.83
2022-07-29T03:17:15.943Z,77.97
2022-07-29T03:19:44.656Z,76.93
2022-07-29T03:22:14.686Z,81.57
2022-07-29T03:24:42.916Z,76.97
2022-07-29T03:27:11.145Z,78.10
2022-07-29T03:29:39.381Z,88.87
2022-07-29T03:32:09.017Z,80.07
2022-07-29T03:34:37.775Z,80.93
2022-07-29T03:37:06.826Z,78.63
2022-07-29T03:39:39.349Z,76.80
2022-07-29T03:42:08.479Z,81.93
2022-07-29T03:44:37.344Z,78.20
2022-07-29T03:47:07.367Z,78.03
2022-07-29T03:49:37.649Z,78.07
2022-07-29T03:52:06.335Z,85.47
2022-07-29T03:54:34.737Z,82.23
2022-07-29T03:57:08.159Z,75.90
2022-07-29T03:59:36.801Z,83.17
2022-07-29T04:02:06.309Z,74.93
2022-07-29T04:04:35.447Z,81.73
2022-07-29T04:07:03.770Z,77.80
2022-07-29T04:09:32.037Z,75.70
2022-07-29T04:12:03.291Z,83.57
2022-07-29T04:14:33.884Z,74.93
2022-07-29T04:17:02.207Z,85.53
2022-07-29T04:19:30.505Z,79.70
2022-07-29T04:21:58.841Z,80.40
2022-07-29T04:24:27.080Z,82.07
2022-07-29T04:26:55.310Z,78.13
2022-07-29T04:29:23.554Z,74.90
2022-07-29T04:31:53.180Z,78.00
2022-07-29T04:34:21.475Z,77.53
2022-07-29T04:36:49.780Z,76.50
2022-07-29T04:39:22.727Z,89.63
2022-07-29T04:41:52.577Z,128.33
2022-07-29T04:44:28.433Z,84.53
2022-07-29T04:46:59.110Z,80.90
2022-07-29T04:49:27.533Z,83.27
2022-07-29T04:51:55.981Z,80.53
2022-07-29T04:54:24.224Z,84.53
2022-07-29T04:56:53.759Z,79.40
2022-07-29T04:59:22.030Z,76.90
2022-07-29T05:01:50.331Z,79.37
2022-07-29T05:04:20.581Z,80.90
2022-07-29T05:06:49.348Z,77.57
2022-07-29T05:09:17.689Z,76.80
2022-07-29T05:11:45.989Z,81.87
2022-07-29T05:14:14.718Z,78.87
2022-07-29T05:16:44.284Z,82.67
2022-07-29T05:19:14.696Z,76.73
2022-07-29T05:21:44.617Z,80.27
2022-07-29T05:24:13.516Z,79.43
2022-07-29T05:26:42.230Z,75.73
2022-07-29T05:29:44.843Z,81.03
2022-07-29T05:31:59.390Z,80.63
2022-07-29T05:34:28.797Z,79.73
2022-07-29T05:36:58.395Z,86.73
2022-07-29T05:39:48.683Z,80.00
2022-07-29T05:42:15.017Z,76.60
2022-07-29T05:44:43.296Z,89.27
2022-07-29T05:47:12.480Z,81.40
2022-07-29T05:49:40.766Z,82.87
2022-07-29T05:52:11.155Z,78.07
2022-07-29T05:54:39.416Z,87.03
2022-07-29T05:57:07.773Z,88.03
2022-07-29T05:59:38.009Z,75.73
2022-07-29T06:02:06.401Z,87.80
2022-07-29T06:04:34.918Z,81.30
2022-07-29T06:07:03.517Z,83.17
2022-07-29T06:09:36.006Z,80.40
2022-07-29T06:12:04.809Z,83.07
2022-07-29T06:14:33.589Z,78.83
2022-07-29T06:17:01.891Z,85.13
2022-07-29T06:19:30.099Z,81.07
2022-07-29T06:21:58.397Z,88.90
2022-07-29T06:24:30.584Z,77.87
2022-07-29T06:27:07.017Z,78.67
2022-07-29T06:29:35.308Z,78.53
2022-07-29T06:35:38.826Z,75.63
2022-07-29T06:38:30.122Z,81.57
2022-07-29T06:41:06.238Z,83.23
2022-07-29T06:44:16.001Z,80.73
2022-07-29T06:47:05.316Z,84.33
2022-07-29T06:50:13.467Z,86.53
2022-07-29T06:52:44.662Z,77.63
2022-07-29T06:55:24.939Z,87.83
2022-07-29T06:57:53.896Z,83.77
2022-07-29T07:00:22.704Z,85.23
2022-07-29T07:02:57.454Z,90.50
2022-07-29T07:05:27.878Z,84.30
2022-07-29T07:07:57.621Z,90.93
2022-07-29T07:10:25.870Z,91.07
2022-07-29T07:12:54.148Z,89.17
2022-07-29T07:15:22.905Z,82.17
2022-07-29T07:18:08.881Z,88.70
2022-07-29T07:20:37.513Z,83.27
2022-07-29T07:23:06.505Z,84.53
2022-07-29T07:25:34.826Z,85.37
2022-07-29T07:28:03.375Z,88.57
2022-07-29T07:30:31.866Z,88.70
2022-07-29T07:33:00.159Z,90.53
2022-07-29T07:35:29.906Z,83.57
2022-07-29T07:37:58.118Z,92.53
2022-07-29T07:40:27.005Z,94.60
2022-07-29T07:42:55.186Z,88.13
2022-07-29T07:45:23.647Z,85.10
2022-07-29T07:47:52.050Z,88.20
2022-07-29T07:50:20.758Z,87.07
2022-07-29T07:52:51.304Z,89.03
2022-07-29T07:55:19.846Z,88.50
2022-07-29T07:57:48.556Z,88.73
2022-07-29T08:00:17.684Z,93.33
2022-07-29T08:02:46.353Z,90.00
2022-07-29T08:05:17.797Z,89.43
2022-07-29T08:07:47.442Z,87.60
2022-07-29T08:10:37.515Z,98.20
2022-07-29T08:13:06.141Z,97.17
2022-07-29T08:15:34.797Z,86.57
2022-07-29T08:18:08.518Z,89.37
2022-07-29T08:20:37.406Z,89.77
2022-07-29T08:23:13.715Z,87.33
2022-07-29T08:26:01.646Z,89.00
2022-07-29T08:28:30.117Z,88.60
2022-07-29T08:31:17.261Z,85.00
2022-07-29T08:33:46.376Z,91.17
2022-07-29T08:36:17.172Z,88.87
2022-07-29T08:38:45.835Z,86.60
2022-07-29T08:41:15.969Z,98.53
2022-07-29T08:43:58.881Z,88.40
2022-07-29T08:46:28.550Z,105.27
2022-07-29T08:49:05.037Z,89.33
2022-07-29T08:51:34.870Z,90.03
2022-07-29T08:54:24.654Z,107.30
2022-07-29T08:56:55.122Z,101.07
2022-07-29T08:59:42.458Z,89.77
2022-07-29T09:02:14.424Z,101.60
2022-07-29T09:04:42.865Z,87.67
2022-07-29T09:07:14.312Z,89.90
2022-07-29T09:09:43.768Z,89.27
2022-07-29T09:12:13.775Z,111.80
2022-07-29T09:15:34.299Z,88.80
2022-07-29T09:18:20.350Z,88.03
2022-07-29T09:21:16.245Z,87.23
2022-07-29T09:24:02.463Z,94.27
2022-07-29T09:26:31.829Z,92.17
2022-07-29T09:29:01.800Z,95.33
2022-07-29T09:31:35.579Z,91.93
2022-07-29T09:34:06.142Z,90.27
2022-07-29T09:36:41.329Z,93.00
2022-07-29T09:39:09.862Z,93.27
2022-07-29T09:41:48.159Z,101.57
2022-07-29T09:44:19.375Z,93.33
2022-07-29T09:46:56.395Z,95.87
2022-07-29T09:49:24.973Z,95.07
2022-07-29T09:52:03.966Z,89.93
2022-07-29T09:54:37.550Z,91.97
2022-07-29T09:57:07.442Z,93.40
2022-07-29T09:59:37.078Z,95.67
2022-07-29T10:02:23.652Z,93.37
2022-07-29T10:04:52.237Z,92.57
2022-07-29T10:07:20.515Z,95.23
2022-07-29T10:09:52.655Z,92.33
2022-07-29T10:12:21.037Z,93.57
2022-07-29T10:14:51.109Z,93.40
2022-07-29T10:17:20.206Z,99.77
2022-07-29T10:19:48.782Z,97.93
2022-07-29T10:22:36.827Z,94.73
2022-07-29T10:25:05.621Z,95.57
2022-07-29T10:27:34.318Z,93.33
2022-07-29T10:30:05.451Z,97.67
2022-07-29T10:32:41.775Z,105.00
2022-07-29T10:35:18.067Z,97.27
2022-07-29T10:37:55.034Z,92.57
2022-07-29T10:40:44.555Z,96.33
2022-07-29T10:43:25.527Z,98.90
2022-07-29T10:46:02.727Z,95.67
2022-07-29T10:48:31.160Z,94.50
2022-07-29T10:51:00.936Z,98.37
2022-07-29T10:53:44.362Z,95.17
2022-07-29T10:56:28.460Z,95.67
2022-07-29T10:59:15.390Z,92.90
2022-07-29T11:02:02.468Z,93.17
2022-07-29T11:04:48.627Z,101.93
2022-07-29T11:07:18.680Z,94.43
2022-07-29T11:09:47.369Z,99.63
2022-07-29T11:12:33.189Z,95.33
2022-07-29T11:15:03.677Z,98.93
2022-07-29T11:17:53.722Z,95.20
2022-07-29T11:20:36.519Z,95.17
2022-07-29T11:23:20.468Z,95.60
2022-07-29T11:26:18.520Z,94.10
2022-07-29T11:28:53.163Z,94.23
2022-07-29T11:31:45.235Z,99.40
2022-07-29T11:34:34.890Z,91.47
2022-07-29T11:37:27.936Z,94.43
2022-07-29T11:40:15.540Z,93.13
2022-07-29T11:42:51.954Z,95.13
2022-07-29T11:45:43.524Z,96.67
2022-07-29T11:51:12.105Z,96.20
2022-07-29T11:53:43.282Z,97.63
2022-07-29T11:56:17.114Z,98.87
2022-07-29T11:58:45.516Z,101.80
2022-07-29T12:01:16.196Z,99.37
2022-07-29T12:03:44.987Z,99.20
2022-07-29T12:06:17.365Z,98.80
2022-07-29T12:08:48.182Z,98.53
2022-07-29T12:11:21.622Z,94.63
2022-07-29T12:13:50.709Z,98.37
2022-07-29T12:16:29.187Z,96.83
2022-07-29T12:19:02.563Z,94.63
2022-07-29T12:21:32.155Z,96.07
2022-07-29T12:24:09.316Z,96.73
2022-07-29T12:26:38.289Z,98.10
2022-07-29T12:29:11.280Z,98.87
2022-07-29T12:31:45.564Z,105.30
2022-07-29T12:34:14.411Z,105.37
2022-07-29T12:36:43.634Z,93.27
2022-07-29T12:39:13.882Z,94.10
2022-07-29T12:41:42.304Z,103.17
2022-07-29T12:44:10.710Z,92.50
2022-07-29T12:46:39.587Z,94.10
2022-07-29T12:49:08.262Z,96.70
2022-07-29T12:51:38.428Z,98.47
2022-07-29T12:54:09.111Z,97.50
2022-07-29T12:56:43.671Z,97.67
2022-07-29T12:59:16.632Z,95.93
2022-07-29T13:01:45.360Z,96.17
2022-07-29T13:04:13.709Z,97.63
2022-07-29T13:06:46.079Z,95.03
2022-07-29T13:09:19.658Z,97.07
2022-07-29T13:11:50.601Z,99.43
2022-07-29T13:14:32.552Z,101.47
2022-07-29T13:17:04.964Z,95.97
2022-07-29T13:19:37.890Z,98.77
2022-07-29T13:22:06.562Z,102.53
2022-07-29T13:24:35.017Z,94.40
2022-07-29T13:27:05.652Z,103.43
2022-07-29T13:29:34.440Z,98.23
2022-07-29T13:32:03.030Z,101.83
2022-07-29T13:34:32.072Z,100.23
2022-07-29T13:37:00.406Z,99.53
2022-07-29T13:39:28.791Z,107.40
2022-07-29T13:41:57.605Z,101.50
2022-07-29T13:44:27.593Z,101.87
2022-07-29T13:46:56.029Z,100.00
2022-07-29T13:49:24.535Z,104.70
2022-07-29T13:51:52.932Z,100.03
2022-07-29T13:54:21.368Z,101.33
2022-07-29T13:56:49.749Z,102.77
2022-07-29T13:59:18.153Z,101.33
2022-07-29T14:01:47.873Z,102.13
2022-07-29T14:04:16.388Z,100.50
2022-07-29T14:06:44.791Z,105.90
2022-07-29T14:09:13.057Z,102.63
2022-07-29T14:11:41.423Z,98.03
2022-07-29T14:14:11.145Z,105.63
2022-07-29T14:16:43.799Z,95.80
2022-07-29T14:19:18.730Z,106.70
2022-07-29T14:21:47.665Z,93.80
2022-07-29T14:24:17.822Z,94.07
2022-07-29T14:26:50.203Z,88.17
2022-07-29T14:29:18.544Z,96.97
2022-07-29T14:31:46.996Z,87.67
2022-07-29T14:34:16.411Z,87.50
2022-07-29T14:36:46.066Z,86.93
2022-07-29T14:39:15.360Z,85.73
2022-07-29T14:41:43.714Z,83.67
2022-07-29T14:44:11.958Z,87.33
2022-07-29T14:46:40.381Z,87.27
2022-07-29T14:49:09.691Z,81.77
2022-07-29T14:51:38.300Z,81.07
2022-07-29T14:54:10.135Z,86.67
2022-07-29T14:56:46.297Z,98.67
2022-07-29T14:59:15.583Z,86.30
2022-07-29T15:01:44.504Z,82.70
2022-07-29T15:04:12.807Z,87.30
2022-07-29T15:06:41.087Z,84.47
2022-07-29T15:09:10.778Z,90.47
2022-07-29T15:11:39.818Z,89.77
2022-07-29T15:14:08.374Z,92.00
2022-07-29T15:16:38.143Z,93.27
2022-07-29T15:19:06.777Z,90.90
2022-07-29T15:21:35.140Z,93.23
2022-07-29T15:24:11.809Z,93.00
2022-07-29T15:26:40.466Z,93.83
2022-07-29T15:29:08.935Z,90.03
2022-07-29T15:31:37.433Z,95.70
2022-07-29T15:34:06.525Z,95.73
2022-07-29T15:36:51.631Z,102.03
2022-07-29T15:39:23.938Z,90.40
2022-07-29T15:41:52.781Z,99.43
2022-07-29T15:44:21.364Z,106.50
2022-07-29T15:47:06.126Z,99.10
2022-07-29T15:49:47.860Z,96.07
2022-07-29T15:52:17.784Z,102.73
2022-07-29T15:54:47.559Z,90.97
2022-07-29T15:57:15.908Z,96.03
2022-07-29T15:59:45.525Z,90.93
2022-07-29T16:02:14.115Z,105.03
2022-07-29T16:04:42.609Z,98.27
2022-07-29T16:07:10.973Z,96.13
2022-07-29T16:09:39.290Z,94.20
2022-07-29T16:12:15.484Z,108.57
2022-07-29T16:14:44.583Z,94.23
2022-07-29T16:17:14.754Z,95.03
2022-07-29T16:19:49.212Z,100.40
2022-07-29T16:22:29.695Z,92.40
2022-07-29T16:24:58.073Z,95.47
2022-07-29T16:27:38.302Z,111.23
2022-07-29T16:30:10.772Z,107.67
2022-07-29T16:32:40.287Z,97.10
2022-07-29T16:35:15.057Z,94.87
2022-07-29T16:37:46.947Z,95.67
2022-07-29T16:40:21.609Z,94.33
2022-07-29T16:43:04.409Z,94.40
2022-07-29T16:45:47.633Z,91.20
2022-07-29T16:48:22.866Z,91.70
2022-07-29T16:50:52.706Z,96.37
2022-07-29T16:53:31.370Z,98.37
2022-07-29T16:56:02.209Z,96.90
2022-07-29T16:58:32.188Z,99.87
2022-07-29T17:01:01.066Z,94.10
2022-07-29T17:03:29.723Z,93.00
2022-07-29T17:05:58.034Z,91.67
2022-07-29T17:08:26.559Z,95.40
2022-07-29T17:10:54.863Z,94.10
2022-07-29T17:13:23.194Z,97.93
2022-07-29T17:15:55.497Z,97.13
2022-07-29T17:18:27.130Z,97.77
2022-07-29T17:20:55.443Z,93.43
2022-07-29T17:23:23.754Z,95.83
2022-07-29T17:25:52.140Z,94.77
2022-07-29T17:28:20.446Z,95.43
2022-07-29T17:30:48.936Z,91.00
2022-07-29T17:33:18.723Z,99.70
2022-07-29T17:36:04.883Z,94.50
2022-07-29T17:38:33.268Z,88.43
2022-07-29T17:41:01.589Z,94.40
2022-07-29T17:43:36.208Z,96.17
2022-07-29T17:46:09.011Z,92.47
2022-07-29T17:48:39.140Z,89.30
2022-07-29T17:51:08.958Z,91.50
2022-07-29T17:53:37.316Z,97.37
2022-07-29T17:56:06.577Z,88.93
2022-07-29T17:58:35.126Z,94.03
2022-07-29T18:01:03.698Z,92.17
2022-07-29T18:03:44.782Z,123.30
2022-07-29T18:06:16.974Z,92.00
2022-07-29T18:08:47.718Z,104.50
2022-07-29T18:11:16.415Z,89.60
2022-07-29T18:13:44.752Z,87.30
2022-07-29T18:16:13.141Z,95.03
2022-07-29T18:18:41.758Z,92.37
2022-07-29T18:21:10.060Z,87.97
2022-07-29T18:23:40.258Z,93.70
2022-07-29T18:26:08.760Z,93.07
2022-07-29T18:28:37.088Z,89.57
2022-07-29T18:31:05.517Z,91.43
2022-07-29T18:33:33.883Z,93.07
2022-07-29T18:36:04.196Z,91.43
2022-07-29T18:38:40.693Z,91.40
2022-07-29T18:41:09.035Z,89.97
2022-07-29T18:43:37.501Z,88.70
2022-07-29T18:46:06.665Z,93.77
2022-07-29T18:48:35.537Z,89.07
2022-07-29T18:51:09.111Z,91.40
2022-07-29T18:53:38.007Z,89.70
2022-07-29T18:56:07.772Z,92.13
2022-07-29T18:58:38.175Z,88.20
2022-07-29T19:01:06.479Z,88.20
2022-07-29T19:03:34.802Z,87.53
2022-07-29T19:06:03.084Z,92.03
2022-07-29T19:08:32.569Z,89.20
2022-07-29T19:11:00.787Z,91.93
2022-07-29T19:13:30.930Z,91.87
2022-07-29T19:15:59.232Z,99.20
2022-07-29T19:18:27.531Z,88.23
2022-07-29T19:20:55.866Z,91.40
2022-07-29T19:23:24.306Z,95.73
2022-07-29T19:25:53.706Z,89.33
2022-07-29T19:28:22.819Z,87.77
2022-07-29T19:30:52.862Z,98.57
2022-07-29T19:33:21.423Z,93.23
2022-07-29T19:35:54.429Z,87.97
2022-07-29T19:38:23.706Z,104.27
2022-07-29T19:41:01.114Z,86.07
2022-07-29T19:43:50.480Z,85.30
2022-07-29T19:46:20.591Z,83.57
2022-07-29T19:49:07.796Z,89.90
2022-07-29T19:51:50.319Z,84.93
2022-07-29T19:54:37.607Z,171.10
2022-07-29T19:57:58.496Z,176.67
2022-07-29T20:40:33.081Z,87.00
2022-07-29T21:00:28.831Z,100.60
2022-07-29T21:07:22.068Z,102.10
2022-07-29T21:13:15.121Z,88.20
2022-07-29T21:15:46.158Z,98.30
2022-07-29T21:18:27.046Z,87.67
2022-07-29T21:20:55.312Z,88.93
2022-07-29T21:23:23.755Z,89.43
2022-07-29T21:25:52.250Z,85.57
2022-07-29T21:28:27.048Z,92.30
2022-07-29T21:30:55.710Z,95.77
2022-07-29T21:33:24.500Z,86.83
2022-07-29T21:36:16.012Z,86.77
2022-07-29T21:38:41.426Z,86.00
2022-07-29T21:41:10.805Z,87.37
2022-07-29T21:43:42.206Z,86.43
2022-07-29T21:46:10.663Z,98.83
2022-07-29T21:48:43.861Z,85.83
2022-07-29T21:51:12.717Z,86.67
2022-07-29T21:53:40.981Z,88.33
2022-07-29T21:56:10.332Z,86.93
2022-07-29T21:58:44.467Z,87.50
2022-07-29T22:01:12.849Z,89.03
2022-07-29T22:03:41.140Z,89.23
2022-07-29T22:06:11.283Z,104.60
2022-07-29T22:08:47.792Z,100.87
2022-07-29T22:11:16.043Z,91.00
2022-07-29T22:13:45.803Z,87.93
2022-07-29T22:16:16.450Z,94.97
2022-07-29T22:18:46.876Z,97.43
2022-07-29T22:21:15.303Z,85.50
2022-07-29T22:23:43.593Z,90.40
2022-07-29T22:26:14.288Z,86.90
2022-07-29T22:28:42.737Z,93.23
2022-07-29T22:31:12.686Z,86.50
2022-07-29T22:33:41.032Z,87.43
2022-07-29T22:36:12.620Z,90.53
2022-07-29T22:38:41.022Z,102.50
2022-07-29T22:41:09.531Z,84.83
2022-07-29T22:43:43.019Z,90.10
2022-07-29T22:46:14.194Z,86.60
2022-07-29T22:48:42.812Z,89.20
2022-07-29T22:51:11.284Z,87.93
2022-07-29T22:53:39.835Z,87.23
2022-07-29T22:56:08.437Z,93.60
2022-07-29T22:58:36.779Z,94.27
2022-07-29T23:01:05.176Z,88.40
2022-07-29T23:03:35.117Z,86.40
2022-07-29T23:06:05.483Z,93.33
2022-07-29T23:08:36.906Z,90.73
2022-07-29T23:11:05.647Z,90.53
2022-07-29T23:13:33.991Z,87.70
2022-07-29T23:16:02.707Z,83.53
2022-07-29T23:18:35.199Z,90.23
2022-07-29T23:21:03.706Z,88.90
2022-07-29T23:23:34.823Z,87.40
2022-07-29T23:26:03.154Z,85.37
2022-07-29T23:28:31.447Z,84.63
2022-07-29T23:30:59.830Z,91.23
2022-07-29T23:33:34.351Z,92.40
2022-07-29T23:36:04.189Z,89.70
2022-07-29T23:38:32.625Z,94.40
2022-07-29T23:41:10.165Z,88.37
2022-07-29T23:43:38.799Z,89.63
2022-07-29T23:46:07.519Z,90.83
2022-07-29T23:48:36.833Z,93.83
2022-07-29T23:51:07.790Z,90.43
2022-07-29T23:53:53.840Z,92.50
2022-07-29T23:56:25.445Z,94.03
2022-07-29T23:59:05.805Z,85.80
